Auburndale, FL (33823)

8:35 AM EST on March 02, 2015 (GMT -0500)
PD1 | Change Station
CLOSE
Current Station
Personal Weather Station
Location: Holiday Manor, FL
Elevation: 100 ft
Nearby Weather Stations
Active Advisory: Dense Fog Advisory

Elev 100 ft 28.16 °N, 81.68 °W | Updated 27 seconds ago

Fog
Fog
67.5 °F
Feels Like 67.5 °F
N
0.0
Wind Variable Wind from East
Gusts 0.0 mph

Today
High -- | Low -- °F
--% Chance of Precip.
Yesterday
High -- | Low -- °F
Precip. -- in
6:51 AM 6:28 PM
Waxing Gibbous, 91% visible
Pressure 30.32 in
Visibility 1.2 miles
Clouds Overcast 300 ft
Dew Point 67 °F
Humidity 99%
Rainfall 0.00 in
Snow Depth Not available.
UV 0 out of 12
Pollen 9.20 out of 12
Air Quality Not available.
Flu Activity Not available.
SPECI KGIF 021308Z AUTO 05004KT 1 1/4SM BR OVC003 19/19 A3032 RMK AO2 T01940189

More Conditions Fewer Conditions

Pressure 30.32 in
Visibility 1.2 miles
Clouds Overcast 300 ft
Dew Point 67 °F
Humidity 99%
Rainfall 0.00 in
Snow Depth Not available.
UV 0 out of 12
Pollen 9.20 out of 12
Air Quality Not available.
Flu Activity Not available.
SPECI KGIF 021308Z AUTO 05004KT 1 1/4SM BR OVC003 19/19 A3032 RMK AO2 T01940189

More Conditions Fewer Conditions

10-Day Weather Forecast

Almanac

Astronomy

Mar. 02, 2015 Rise Set
Actual Time
Civil Twilight
Nautical Twilight
Astronomical Twilight
Moon
Length of Visible Light
Length of Day
Tomorrow will be .
, % of the Moon is Illuminated

Today's Extremes

State Highs State Lows

Community

WunderPhotos

Upload Photos

1,801,782 photos uploaded!

WunderBlogs® & News

Nearby

Air Quality

  Air Quality AQ Index Pollutant
Not available.

Snow Depth

Station Depth Elevation

Earthquake Activity

City Distance Mag. Time & Date
Minimum magnitude displayed is 2.5.

Coastal Water Temperatures

Place Temperature

Nearby Weather Stations

Dense Fog Advisory
Statement as of 6:14 AM EST on March 02, 2015

... Dense fog advisory in effect until 10 am EST this morning...

The National Weather Service in Tampa Bay area - Ruskin FL has
issued a dense fog advisory... which is in effect until 10 am EST
this morning.

* Visibility... ares of 1/2 mile or less

* impacts... low visibility will result in dangerous driving
conditions.

Precautionary/preparedness actions...

Motorists should slow down... use low beam headlights... and
maintain a safe distance between vehicles.